sensor_id;sensor_type;location;lat;lon;timestamp;temperature;humidity
13960;DHT22;7052;51.050;3.716;2023-12-29T00:00:34;10.60;99.90
13960;DHT22;7052;51.050;3.716;2023-12-29T00:03:03;10.60;99.90
13960;DHT22;7052;51.050;3.716;2023-12-29T00:05:30;10.50;99.90
13960;DHT22;7052;51.050;3.716;2023-12-29T00:07:57;10.40;99.90
13960;DHT22;7052;51.050;3.716;2023-12-29T00:10:25;10.40;99.90
13960;DHT22;7052;51.050;3.716;2023-12-29T00:12:52;10.40;99.90
13960;DHT22;7052;51.050;3.716;2023-12-29T00:15:20;10.40;99.90
13960;DHT22;7052;51.050;3.716;2023-12-29T00:17:47;10.30;99.90
13960;DHT22;7052;51.050;3.716;2023-12-29T00:20:15;10.30;99.90
13960;DHT22;7052;51.050;3.716;2023-12-29T00:22:42;10.30;99.90
13960;DHT22;7052;51.050;3.716;2023-12-29T00:25:12;10.30;99.90
13960;DHT22;7052;51.050;3.716;2023-12-29T00:27:42;10.30;99.90
13960;DHT22;7052;51.050;3.716;2023-12-29T00:30:11;10.30;99.90
13960;DHT22;7052;51.050;3.716;2023-12-29T00:32:37;10.30;99.90
13960;DHT22;7052;51.050;3.716;2023-12-29T00:35:06;10.40;99.90
13960;DHT22;7052;51.050;3.716;2023-12-29T00:37:35;10.30;99.90
13960;DHT22;7052;51.050;3.716;2023-12-29T00:40:03;10.40;99.90
13960;DHT22;7052;51.050;3.716;2023-12-29T00:42:30;10.30;99.90
13960;DHT22;7052;51.050;3.716;2023-12-29T00:44:57;10.30;99.90
13960;DHT22;7052;51.050;3.716;2023-12-29T00:47:24;10.30;99.90
13960;DHT22;7052;51.050;3.716;2023-12-29T00:49:51;10.30;99.90
13960;DHT22;7052;51.050;3.716;2023-12-29T00:52:18;10.30;99.90
13960;DHT22;7052;51.050;3.716;2023-12-29T00:54:47;10.30;99.90
13960;DHT22;7052;51.050;3.716;2023-12-29T00:57:16;10.30;99.90
13960;DHT22;7052;51.050;3.716;2023-12-29T00:59:46;10.30;99.90
13960;DHT22;7052;51.050;3.716;2023-12-29T01:02:13;10.30;99.90
13960;DHT22;7052;51.050;3.716;2023-12-29T01:04:40;10.30;99.90
13960;DHT22;7052;51.050;3.716;2023-12-29T01:07:09;10.30;99.90
13960;DHT22;7052;51.050;3.716;2023-12-29T01:09:37;10.30;99.90
13960;DHT22;7052;51.050;3.716;2023-12-29T01:12:10;10.30;99.90
13960;DHT22;7052;51.050;3.716;2023-12-29T01:14:37;10.30;99.90
13960;DHT22;7052;51.050;3.716;2023-12-29T01:17:06;10.40;99.90
13960;DHT22;7052;51.050;3.716;2023-12-29T01:19:34;10.30;99.90
13960;DHT22;7052;51.050;3.716;2023-12-29T01:22:01;10.20;99.90
13960;DHT22;7052;51.050;3.716;2023-12-29T01:24:28;10.30;99.90
13960;DHT22;7052;51.050;3.716;2023-12-29T01:26:57;10.30;99.90
13960;DHT22;7052;51.050;3.716;2023-12-29T01:29:25;10.30;99.90
13960;DHT22;7052;51.050;3.716;2023-12-29T01:31:54;10.20;99.90
13960;DHT22;7052;51.050;3.716;2023-12-29T01:34:21;10.20;99.90
13960;DHT22;7052;51.050;3.716;2023-12-29T01:36:49;10.20;99.90
13960;DHT22;7052;51.050;3.716;2023-12-29T01:39:17;10.20;99.90
13960;DHT22;7052;51.050;3.716;2023-12-29T01:41:45;10.10;99.90
13960;DHT22;7052;51.050;3.716;2023-12-29T01:44:20;10.10;99.90
13960;DHT22;7052;51.050;3.716;2023-12-29T01:46:53;10.10;99.90
13960;DHT22;7052;51.050;3.716;2023-12-29T01:49:24;10.10;99.90
13960;DHT22;7052;51.050;3.716;2023-12-29T01:51:53;10.00;99.90
13960;DHT22;7052;51.050;3.716;2023-12-29T01:54:24;10.10;99.90
13960;DHT22;7052;51.050;3.716;2023-12-29T01:56:53;10.00;99.90
13960;DHT22;7052;51.050;3.716;2023-12-29T01:59:21;10.10;99.90
13960;DHT22;7052;51.050;3.716;2023-12-29T02:01:48;10.10;99.90
13960;DHT22;7052;51.050;3.716;2023-12-29T02:04:18;10.20;99.90
13960;DHT22;7052;51.050;3.716;2023-12-29T02:06:47;10.10;99.90
13960;DHT22;7052;51.050;3.716;2023-12-29T02:09:17;10.00;99.90
13960;DHT22;7052;51.050;3.716;2023-12-29T02:11:44;10.10;99.90
13960;DHT22;7052;51.050;3.716;2023-12-29T02:14:11;10.10;99.90
13960;DHT22;7052;51.050;3.716;2023-12-29T02:16:46;10.10;99.90
13960;DHT22;7052;51.050;3.716;2023-12-29T02:19:38;10.10;99.90
13960;DHT22;7052;51.050;3.716;2023-12-29T02:22:08;10.00;99.90
13960;DHT22;7052;51.050;3.716;2023-12-29T02:24:35;10.00;99.90
13960;DHT22;7052;51.050;3.716;2023-12-29T02:27:11;9.90;99.90
13960;DHT22;7052;51.050;3.716;2023-12-29T02:29:48;9.90;99.90
13960;DHT22;7052;51.050;3.716;2023-12-29T02:32:18;9.80;99.90
13960;DHT22;7052;51.050;3.716;2023-12-29T02:34:49;9.90;99.90
13960;DHT22;7052;51.050;3.716;2023-12-29T02:37:19;9.90;99.90
13960;DHT22;7052;51.050;3.716;2023-12-29T02:39:48;9.90;99.90
13960;DHT22;7052;51.050;3.716;2023-12-29T02:42:29;9.90;99.90
13960;DHT22;7052;51.050;3.716;2023-12-29T02:44:57;9.90;99.90
13960;DHT22;7052;51.050;3.716;2023-12-29T02:47:25;9.80;99.90
13960;DHT22;7052;51.050;3.716;2023-12-29T02:49:52;9.90;99.90
13960;DHT22;7052;51.050;3.716;2023-12-29T02:52:21;9.90;99.90
13960;DHT22;7052;51.050;3.716;2023-12-29T02:54:49;9.90;99.90
13960;DHT22;7052;51.050;3.716;2023-12-29T02:57:19;10.00;99.90
13960;DHT22;7052;51.050;3.716;2023-12-29T02:59:47;9.90;99.90
13960;DHT22;7052;51.050;3.716;2023-12-29T03:02:16;9.90;99.90
13960;DHT22;7052;51.050;3.716;2023-12-29T03:04:45;9.90;99.90
13960;DHT22;7052;51.050;3.716;2023-12-29T03:07:13;9.90;99.90
13960;DHT22;7052;51.050;3.716;2023-12-29T03:09:41;9.90;99.90
13960;DHT22;7052;51.050;3.716;2023-12-29T03:12:08;9.90;99.90
13960;DHT22;7052;51.050;3.716;2023-12-29T03:14:36;9.90;99.90
13960;DHT22;7052;51.050;3.716;2023-12-29T03:17:05;9.80;99.90
13960;DHT22;7052;51.050;3.716;2023-12-29T03:19:32;9.90;99.90
13960;DHT22;7052;51.050;3.716;2023-12-29T03:22:00;9.70;99.90
13960;DHT22;7052;51.050;3.716;2023-12-29T03:24:28;9.70;99.90
13960;DHT22;7052;51.050;3.716;2023-12-29T03:26:56;9.70;99.90
13960;DHT22;7052;51.050;3.716;2023-12-29T03:29:24;9.70;99.90
13960;DHT22;7052;51.050;3.716;2023-12-29T03:31:52;9.60;99.90
13960;DHT22;7052;51.050;3.716;2023-12-29T03:34:20;9.70;99.90
13960;DHT22;7052;51.050;3.716;2023-12-29T03:36:56;9.70;99.90
13960;DHT22;7052;51.050;3.716;2023-12-29T03:39:24;9.70;99.90
13960;DHT22;7052;51.050;3.716;2023-12-29T03:41:50;9.70;99.90
13960;DHT22;7052;51.050;3.716;2023-12-29T03:44:17;9.70;99.90
13960;DHT22;7052;51.050;3.716;2023-12-29T03:46:47;9.70;99.90
13960;DHT22;7052;51.050;3.716;2023-12-29T03:49:20;9.70;99.90
13960;DHT22;7052;51.050;3.716;2023-12-29T03:51:52;9.70;99.90
13960;DHT22;7052;51.050;3.716;2023-12-29T03:54:22;9.70;99.90
13960;DHT22;7052;51.050;3.716;2023-12-29T03:56:49;9.70;99.90
13960;DHT22;7052;51.050;3.716;2023-12-29T03:59:17;9.70;99.90
13960;DHT22;7052;51.050;3.716;2023-12-29T04:01:46;9.70;99.90
13960;DHT22;7052;51.050;3.716;2023-12-29T04:04:13;9.80;99.90
13960;DHT22;7052;51.050;3.716;2023-12-29T04:06:45;9.60;99.90
13960;DHT22;7052;51.050;3.716;2023-12-29T04:09:15;9.60;99.90
13960;DHT22;7052;51.050;3.716;2023-12-29T04:11:44;9.50;99.90
13960;DHT22;7052;51.050;3.716;2023-12-29T04:14:12;9.50;99.90
13960;DHT22;7052;51.050;3.716;2023-12-29T04:16:41;9.50;99.90
13960;DHT22;7052;51.050;3.716;2023-12-29T04:19:09;9.70;99.90
13960;DHT22;7052;51.050;3.716;2023-12-29T04:21:36;9.60;99.90
13960;DHT22;7052;51.050;3.716;2023-12-29T04:24:07;9.60;99.90
13960;DHT22;7052;51.050;3.716;2023-12-29T04:26:36;9.60;99.90
13960;DHT22;7052;51.050;3.716;2023-12-29T04:29:03;9.60;99.90
13960;DHT22;7052;51.050;3.716;2023-12-29T04:31:30;9.70;99.90
13960;DHT22;7052;51.050;3.716;2023-12-29T04:33:58;9.70;99.90
13960;DHT22;7052;51.050;3.716;2023-12-29T04:36:25;9.80;99.90
13960;DHT22;7052;51.050;3.716;2023-12-29T04:38:52;9.80;99.90
13960;DHT22;7052;51.050;3.716;2023-12-29T04:41:21;9.80;99.90
13960;DHT22;7052;51.050;3.716;2023-12-29T04:43:48;9.80;99.90
13960;DHT22;7052;51.050;3.716;2023-12-29T04:46:18;9.80;99.90
13960;DHT22;7052;51.050;3.716;2023-12-29T04:48:48;9.90;99.90
13960;DHT22;7052;51.050;3.716;2023-12-29T04:51:15;9.80;99.90
13960;DHT22;7052;51.050;3.716;2023-12-29T04:53:43;9.90;99.90
13960;DHT22;7052;51.050;3.716;2023-12-29T04:56:11;9.80;99.90
13960;DHT22;7052;51.050;3.716;2023-12-29T04:58:39;9.80;99.90
13960;DHT22;7052;51.050;3.716;2023-12-29T05:01:08;9.80;99.90
13960;DHT22;7052;51.050;3.716;2023-12-29T05:03:35;10.00;99.90
13960;DHT22;7052;51.050;3.716;2023-12-29T05:06:03;9.90;99.90
13960;DHT22;7052;51.050;3.716;2023-12-29T05:08:31;9.80;99.90
13960;DHT22;7052;51.050;3.716;2023-12-29T05:10:58;9.90;99.90
13960;DHT22;7052;51.050;3.716;2023-12-29T05:13:27;9.90;99.90
13960;DHT22;7052;51.050;3.716;2023-12-29T05:15:56;10.00;99.90
13960;DHT22;7052;51.050;3.716;2023-12-29T05:18:23;9.90;99.90
13960;DHT22;7052;51.050;3.716;2023-12-29T05:20:53;10.00;99.90
13960;DHT22;7052;51.050;3.716;2023-12-29T05:23:21;9.90;99.90
13960;DHT22;7052;51.050;3.716;2023-12-29T05:25:48;10.00;99.90
13960;DHT22;7052;51.050;3.716;2023-12-29T05:28:15;9.90;99.90
13960;DHT22;7052;51.050;3.716;2023-12-29T05:30:42;9.90;99.90
13960;DHT22;7052;51.050;3.716;2023-12-29T05:33:13;9.90;99.90
13960;DHT22;7052;51.050;3.716;2023-12-29T05:35:40;9.90;99.90
13960;DHT22;7052;51.050;3.716;2023-12-29T05:38:08;9.90;99.90
13960;DHT22;7052;51.050;3.716;2023-12-29T05:40:35;10.00;99.90
13960;DHT22;7052;51.050;3.716;2023-12-29T05:43:04;10.00;99.90
13960;DHT22;7052;51.050;3.716;2023-12-29T05:45:33;10.00;99.90
13960;DHT22;7052;51.050;3.716;2023-12-29T05:48:04;10.00;99.90
13960;DHT22;7052;51.050;3.716;2023-12-29T05:50:33;10.00;99.90
13960;DHT22;7052;51.050;3.716;2023-12-29T05:53:00;10.10;99.90
13960;DHT22;7052;51.050;3.716;2023-12-29T05:55:27;10.20;99.90
13960;DHT22;7052;51.050;3.716;2023-12-29T05:57:56;10.20;99.90
13960;DHT22;7052;51.050;3.716;2023-12-29T06:00:25;10.10;99.90
13960;DHT22;7052;51.050;3.716;2023-12-29T06:02:56;10.10;99.90
13960;DHT22;7052;51.050;3.716;2023-12-29T06:05:23;10.10;99.90
13960;DHT22;7052;51.050;3.716;2023-12-29T06:07:53;10.10;99.90
13960;DHT22;7052;51.050;3.716;2023-12-29T06:10:21;10.10;99.90
13960;DHT22;7052;51.050;3.716;2023-12-29T06:12:49;10.00;99.90
13960;DHT22;7052;51.050;3.716;2023-12-29T06:15:19;10.00;99.90
13960;DHT22;7052;51.050;3.716;2023-12-29T06:17:46;10.00;99.90
13960;DHT22;7052;51.050;3.716;2023-12-29T06:20:13;10.00;99.90
13960;DHT22;7052;51.050;3.716;2023-12-29T06:22:41;10.10;99.90
13960;DHT22;7052;51.050;3.716;2023-12-29T06:25:11;10.10;99.90
13960;DHT22;7052;51.050;3.716;2023-12-29T06:27:40;10.20;99.90
13960;DHT22;7052;51.050;3.716;2023-12-29T06:30:12;10.10;99.90
13960;DHT22;7052;51.050;3.716;2023-12-29T06:32:48;10.10;99.90
13960;DHT22;7052;51.050;3.716;2023-12-29T06:35:17;10.00;99.90
13960;DHT22;7052;51.050;3.716;2023-12-29T06:37:45;10.00;99.90
13960;DHT22;7052;51.050;3.716;2023-12-29T06:40:17;9.90;99.90
13960;DHT22;7052;51.050;3.716;2023-12-29T06:42:44;9.90;99.90
13960;DHT22;7052;51.050;3.716;2023-12-29T06:45:12;10.00;99.90
13960;DHT22;7052;51.050;3.716;2023-12-29T06:47:39;9.90;99.90
13960;DHT22;7052;51.050;3.716;2023-12-29T06:50:06;9.90;99.90
13960;DHT22;7052;51.050;3.716;2023-12-29T06:52:38;9.90;99.90
13960;DHT22;7052;51.050;3.716;2023-12-29T06:55:08;9.90;99.90
13960;DHT22;7052;51.050;3.716;2023-12-29T06:57:38;9.90;99.90
13960;DHT22;7052;51.050;3.716;2023-12-29T07:00:06;10.00;99.90
13960;DHT22;7052;51.050;3.716;2023-12-29T07:02:33;10.00;99.90
13960;DHT22;7052;51.050;3.716;2023-12-29T07:05:00;10.00;99.90
13960;DHT22;7052;51.050;3.716;2023-12-29T07:07:28;10.00;99.90
13960;DHT22;7052;51.050;3.716;2023-12-29T07:09:58;10.00;99.90
13960;DHT22;7052;51.050;3.716;2023-12-29T07:12:26;10.00;99.90
13960;DHT22;7052;51.050;3.716;2023-12-29T07:14:55;9.90;99.90
13960;DHT22;7052;51.050;3.716;2023-12-29T07:17:22;10.00;99.90
13960;DHT22;7052;51.050;3.716;2023-12-29T07:19:50;10.00;99.90
13960;DHT22;7052;51.050;3.716;2023-12-29T07:22:20;10.00;99.90
13960;DHT22;7052;51.050;3.716;2023-12-29T07:24:47;10.00;99.90
13960;DHT22;7052;51.050;3.716;2023-12-29T07:27:14;10.00;99.90
13960;DHT22;7052;51.050;3.716;2023-12-29T07:29:41;10.00;99.90
13960;DHT22;7052;51.050;3.716;2023-12-29T07:32:10;10.00;99.90
13960;DHT22;7052;51.050;3.716;2023-12-29T07:34:38;10.00;99.90
13960;DHT22;7052;51.050;3.716;2023-12-29T07:37:06;10.00;99.90
13960;DHT22;7052;51.050;3.716;2023-12-29T07:39:36;10.00;99.90
13960;DHT22;7052;51.050;3.716;2023-12-29T07:42:03;10.10;99.90
13960;DHT22;7052;51.050;3.716;2023-12-29T07:44:31;10.10;99.90
13960;DHT22;7052;51.050;3.716;2023-12-29T07:46:58;10.10;99.90
13960;DHT22;7052;51.050;3.716;2023-12-29T07:49:26;10.20;99.90
13960;DHT22;7052;51.050;3.716;2023-12-29T07:51:55;10.20;99.90
13960;DHT22;7052;51.050;3.716;2023-12-29T07:54:27;10.10;99.90
13960;DHT22;7052;51.050;3.716;2023-12-29T07:56:56;10.10;99.90
13960;DHT22;7052;51.050;3.716;2023-12-29T07:59:25;10.00;99.90
13960;DHT22;7052;51.050;3.716;2023-12-29T08:01:53;10.10;99.90
13960;DHT22;7052;51.050;3.716;2023-12-29T08:04:20;10.10;99.90
13960;DHT22;7052;51.050;3.716;2023-12-29T08:06:51;10.00;99.90
13960;DHT22;7052;51.050;3.716;2023-12-29T08:09:19;10.00;99.90
13960;DHT22;7052;51.050;3.716;2023-12-29T08:11:47;9.90;99.90
13960;DHT22;7052;51.050;3.716;2023-12-29T08:14:14;9.90;99.90
13960;DHT22;7052;51.050;3.716;2023-12-29T08:16:44;9.90;99.90
13960;DHT22;7052;51.050;3.716;2023-12-29T08:19:12;9.90;99.90
13960;DHT22;7052;51.050;3.716;2023-12-29T08:21:40;9.90;99.90
13960;DHT22;7052;51.050;3.716;2023-12-29T08:24:09;10.00;99.90
13960;DHT22;7052;51.050;3.716;2023-12-29T08:26:43;10.00;99.90
13960;DHT22;7052;51.050;3.716;2023-12-29T08:29:12;10.00;99.90
13960;DHT22;7052;51.050;3.716;2023-12-29T08:31:39;10.00;99.90
13960;DHT22;7052;51.050;3.716;2023-12-29T08:34:07;10.00;99.90
13960;DHT22;7052;51.050;3.716;2023-12-29T08:36:34;10.00;99.90
13960;DHT22;7052;51.050;3.716;2023-12-29T08:39:01;10.00;99.90
13960;DHT22;7052;51.050;3.716;2023-12-29T08:41:30;10.00;99.90
13960;DHT22;7052;51.050;3.716;2023-12-29T08:43:57;10.00;99.90
13960;DHT22;7052;51.050;3.716;2023-12-29T08:46:25;10.00;99.90
13960;DHT22;7052;51.050;3.716;2023-12-29T08:48:52;10.00;99.90
13960;DHT22;7052;51.050;3.716;2023-12-29T08:51:19;10.00;99.90
13960;DHT22;7052;51.050;3.716;2023-12-29T08:53:46;10.10;99.90
13960;DHT22;7052;51.050;3.716;2023-12-29T08:56:14;10.10;99.90
13960;DHT22;7052;51.050;3.716;2023-12-29T08:58:44;10.10;99.90
13960;DHT22;7052;51.050;3.716;2023-12-29T09:01:12;10.10;99.90
13960;DHT22;7052;51.050;3.716;2023-12-29T09:03:39;10.10;99.90
13960;DHT22;7052;51.050;3.716;2023-12-29T09:06:06;10.20;99.90
13960;DHT22;7052;51.050;3.716;2023-12-29T09:08:35;10.10;99.90
13960;DHT22;7052;51.050;3.716;2023-12-29T09:11:05;10.20;99.90
13960;DHT22;7052;51.050;3.716;2023-12-29T09:13:36;10.20;99.90
13960;DHT22;7052;51.050;3.716;2023-12-29T09:16:06;10.20;99.90
13960;DHT22;7052;51.050;3.716;2023-12-29T09:18:33;10.30;99.90
13960;DHT22;7052;51.050;3.716;2023-12-29T09:21:01;10.30;99.90
13960;DHT22;7052;51.050;3.716;2023-12-29T09:23:28;10.40;99.90
13960;DHT22;7052;51.050;3.716;2023-12-29T09:25:55;10.40;99.90
13960;DHT22;7052;51.050;3.716;2023-12-29T09:28:26;10.50;99.90
13960;DHT22;7052;51.050;3.716;2023-12-29T09:30:54;10.50;99.90
13960;DHT22;7052;51.050;3.716;2023-12-29T09:33:23;10.50;99.90
13960;DHT22;7052;51.050;3.716;2023-12-29T09:35:51;10.50;99.90
13960;DHT22;7052;51.050;3.716;2023-12-29T09:38:20;10.50;99.90
13960;DHT22;7052;51.050;3.716;2023-12-29T09:40:47;10.50;99.90
13960;DHT22;7052;51.050;3.716;2023-12-29T09:43:15;10.60;99.90
13960;DHT22;7052;51.050;3.716;2023-12-29T09:45:45;10.60;99.90
13960;DHT22;7052;51.050;3.716;2023-12-29T09:48:16;10.60;99.90
13960;DHT22;7052;51.050;3.716;2023-12-29T09:50:47;10.60;99.90
13960;DHT22;7052;51.050;3.716;2023-12-29T09:53:17;10.60;99.90
13960;DHT22;7052;51.050;3.716;2023-12-29T09:55:48;10.60;99.90
13960;DHT22;7052;51.050;3.716;2023-12-29T09:58:16;10.60;99.90
13960;DHT22;7052;51.050;3.716;2023-12-29T10:00:47;10.60;99.90
13960;DHT22;7052;51.050;3.716;2023-12-29T10:03:17;10.60;99.90
13960;DHT22;7052;51.050;3.716;2023-12-29T10:05:51;10.70;99.90
13960;DHT22;7052;51.050;3.716;2023-12-29T10:08:22;10.70;99.90
13960;DHT22;7052;51.050;3.716;2023-12-29T10:10:50;10.80;99.90
13960;DHT22;7052;51.050;3.716;2023-12-29T10:13:19;10.70;99.90
13960;DHT22;7052;51.050;3.716;2023-12-29T10:15:53;10.70;99.90
13960;DHT22;7052;51.050;3.716;2023-12-29T10:18:30;10.60;99.90
13960;DHT22;7052;51.050;3.716;2023-12-29T10:21:08;10.70;99.90
13960;DHT22;7052;51.050;3.716;2023-12-29T10:23:40;10.70;99.90
13960;DHT22;7052;51.050;3.716;2023-12-29T10:26:11;10.80;99.90
13960;DHT22;7052;51.050;3.716;2023-12-29T10:28:38;10.80;99.90
13960;DHT22;7052;51.050;3.716;2023-12-29T10:31:10;10.80;99.90
13960;DHT22;7052;51.050;3.716;2023-12-29T10:33:41;10.90;99.90
13960;DHT22;7052;51.050;3.716;2023-12-29T10:36:10;10.90;99.90
13960;DHT22;7052;51.050;3.716;2023-12-29T10:38:39;10.90;99.90
13960;DHT22;7052;51.050;3.716;2023-12-29T10:41:13;11.00;99.90
13960;DHT22;7052;51.050;3.716;2023-12-29T10:43:41;11.00;99.90
13960;DHT22;7052;51.050;3.716;2023-12-29T10:46:10;11.00;99.90
13960;DHT22;7052;51.050;3.716;2023-12-29T10:48:40;11.20;99.90
13960;DHT22;7052;51.050;3.716;2023-12-29T10:51:10;11.20;99.90
13960;DHT22;7052;51.050;3.716;2023-12-29T10:53:38;11.20;99.90
13960;DHT22;7052;51.050;3.716;2023-12-29T10:56:05;11.20;99.90
13960;DHT22;7052;51.050;3.716;2023-12-29T10:58:42;11.30;99.90
13960;DHT22;7052;51.050;3.716;2023-12-29T11:01:14;11.30;99.90
13960;DHT22;7052;51.050;3.716;2023-12-29T11:03:48;11.40;99.90
13960;DHT22;7052;51.050;3.716;2023-12-29T11:06:26;11.40;99.90
13960;DHT22;7052;51.050;3.716;2023-12-29T11:08:53;11.40;99.90
13960;DHT22;7052;51.050;3.716;2023-12-29T11:11:21;11.40;99.90
13960;DHT22;7052;51.050;3.716;2023-12-29T11:13:50;11.40;99.90
13960;DHT22;7052;51.050;3.716;2023-12-29T11:16:20;11.40;99.90
13960;DHT22;7052;51.050;3.716;2023-12-29T11:18:49;11.40;99.90
13960;DHT22;7052;51.050;3.716;2023-12-29T11:21:19;11.40;99.90
13960;DHT22;7052;51.050;3.716;2023-12-29T11:23:49;11.40;99.90
13960;DHT22;7052;51.050;3.716;2023-12-29T11:26:18;11.40;99.90
13960;DHT22;7052;51.050;3.716;2023-12-29T11:28:46;11.40;99.90
13960;DHT22;7052;51.050;3.716;2023-12-29T11:31:15;11.40;99.90
13960;DHT22;7052;51.050;3.716;2023-12-29T11:33:48;11.40;99.90
13960;DHT22;7052;51.050;3.716;2023-12-29T11:36:22;11.40;99.90
13960;DHT22;7052;51.050;3.716;2023-12-29T11:38:58;11.40;99.90
13960;DHT22;7052;51.050;3.716;2023-12-29T11:41:33;11.40;99.90
13960;DHT22;7052;51.050;3.716;2023-12-29T11:44:04;11.40;99.90
13960;DHT22;7052;51.050;3.716;2023-12-29T11:46:37;11.30;99.90
13960;DHT22;7052;51.050;3.716;2023-12-29T11:49:08;11.30;99.90
13960;DHT22;7052;51.050;3.716;2023-12-29T11:51:42;11.50;99.90
13960;DHT22;7052;51.050;3.716;2023-12-29T11:54:21;11.40;99.90
13960;DHT22;7052;51.050;3.716;2023-12-29T11:56:48;11.40;99.90
13960;DHT22;7052;51.050;3.716;2023-12-29T11:59:16;11.40;99.90
13960;DHT22;7052;51.050;3.716;2023-12-29T12:01:50;11.40;99.90
13960;DHT22;7052;51.050;3.716;2023-12-29T12:04:36;11.40;99.90
13960;DHT22;7052;51.050;3.716;2023-12-29T12:07:08;11.40;99.90
13960;DHT22;7052;51.050;3.716;2023-12-29T12:09:36;11.30;99.90
13960;DHT22;7052;51.050;3.716;2023-12-29T12:12:04;11.30;99.90
13960;DHT22;7052;51.050;3.716;2023-12-29T12:14:48;11.30;99.90
13960;DHT22;7052;51.050;3.716;2023-12-29T12:17:28;11.30;99.90
13960;DHT22;7052;51.050;3.716;2023-12-29T12:20:00;11.30;99.90
13960;DHT22;7052;51.050;3.716;2023-12-29T12:22:30;11.30;99.90
13960;DHT22;7052;51.050;3.716;2023-12-29T12:25:00;11.30;99.90
13960;DHT22;7052;51.050;3.716;2023-12-29T12:27:27;11.20;99.90
13960;DHT22;7052;51.050;3.716;2023-12-29T12:29:55;11.20;99.90
13960;DHT22;7052;51.050;3.716;2023-12-29T12:32:25;11.20;99.90
13960;DHT22;7052;51.050;3.716;2023-12-29T12:34:53;11.30;99.90
13960;DHT22;7052;51.050;3.716;2023-12-29T12:37:23;11.30;99.90
13960;DHT22;7052;51.050;3.716;2023-12-29T12:39:50;11.30;99.90
13960;DHT22;7052;51.050;3.716;2023-12-29T12:42:22;11.30;99.90
13960;DHT22;7052;51.050;3.716;2023-12-29T12:44:56;11.30;99.90
13960;DHT22;7052;51.050;3.716;2023-12-29T12:47:34;11.30;99.90
13960;DHT22;7052;51.050;3.716;2023-12-29T12:50:02;11.30;99.90
13960;DHT22;7052;51.050;3.716;2023-12-29T12:52:32;11.30;99.90
13960;DHT22;7052;51.050;3.716;2023-12-29T12:54:59;11.30;99.90
13960;DHT22;7052;51.050;3.716;2023-12-29T12:57:30;11.30;99.90
13960;DHT22;7052;51.050;3.716;2023-12-29T12:59:59;11.30;99.90
13960;DHT22;7052;51.050;3.716;2023-12-29T13:02:33;11.30;99.90
13960;DHT22;7052;51.050;3.716;2023-12-29T13:05:02;11.30;99.90
13960;DHT22;7052;51.050;3.716;2023-12-29T13:07:33;11.30;99.90
13960;DHT22;7052;51.050;3.716;2023-12-29T13:10:01;11.30;99.90
13960;DHT22;7052;51.050;3.716;2023-12-29T13:12:30;11.30;99.90
13960;DHT22;7052;51.050;3.716;2023-12-29T13:15:05;11.30;99.90
13960;DHT22;7052;51.050;3.716;2023-12-29T13:17:37;11.30;99.90
13960;DHT22;7052;51.050;3.716;2023-12-29T13:20:06;11.20;99.90
13960;DHT22;7052;51.050;3.716;2023-12-29T13:22:33;11.20;99.90
13960;DHT22;7052;51.050;3.716;2023-12-29T13:25:00;11.20;99.90
13960;DHT22;7052;51.050;3.716;2023-12-29T13:27:37;11.10;99.90
13960;DHT22;7052;51.050;3.716;2023-12-29T13:30:07;11.10;99.90
13960;DHT22;7052;51.050;3.716;2023-12-29T13:32:34;11.10;99.90
13960;DHT22;7052;51.050;3.716;2023-12-29T13:35:08;11.10;99.90
13960;DHT22;7052;51.050;3.716;2023-12-29T13:37:47;11.10;99.90
13960;DHT22;7052;51.050;3.716;2023-12-29T13:40:21;11.20;99.90
13960;DHT22;7052;51.050;3.716;2023-12-29T13:42:55;11.10;99.90
13960;DHT22;7052;51.050;3.716;2023-12-29T13:45:25;11.20;99.90
13960;DHT22;7052;51.050;3.716;2023-12-29T13:47:53;11.10;99.90
13960;DHT22;7052;51.050;3.716;2023-12-29T13:50:21;11.10;99.90
13960;DHT22;7052;51.050;3.716;2023-12-29T13:52:51;11.20;99.90
13960;DHT22;7052;51.050;3.716;2023-12-29T13:55:21;11.10;99.90
13960;DHT22;7052;51.050;3.716;2023-12-29T13:57:51;11.20;99.90
13960;DHT22;7052;51.050;3.716;2023-12-29T14:00:21;11.20;99.90
13960;DHT22;7052;51.050;3.716;2023-12-29T14:02:58;11.20;99.90
13960;DHT22;7052;51.050;3.716;2023-12-29T14:05:32;11.20;99.90
13960;DHT22;7052;51.050;3.716;2023-12-29T14:08:08;11.20;99.90
13960;DHT22;7052;51.050;3.716;2023-12-29T14:10:37;11.30;99.90
13960;DHT22;7052;51.050;3.716;2023-12-29T14:13:08;11.20;99.90
13960;DHT22;7052;51.050;3.716;2023-12-29T14:15:35;11.20;99.90
13960;DHT22;7052;51.050;3.716;2023-12-29T14:18:05;11.20;99.90
13960;DHT22;7052;51.050;3.716;2023-12-29T14:20:37;11.30;99.90
13960;DHT22;7052;51.050;3.716;2023-12-29T14:23:05;11.30;99.90
13960;DHT22;7052;51.050;3.716;2023-12-29T14:25:34;11.20;99.90
13960;DHT22;7052;51.050;3.716;2023-12-29T14:28:03;11.20;99.90
13960;DHT22;7052;51.050;3.716;2023-12-29T14:30:31;11.20;99.90
13960;DHT22;7052;51.050;3.716;2023-12-29T14:33:02;11.20;99.90
13960;DHT22;7052;51.050;3.716;2023-12-29T14:35:29;11.10;99.90
13960;DHT22;7052;51.050;3.716;2023-12-29T14:37:57;11.20;99.90
13960;DHT22;7052;51.050;3.716;2023-12-29T14:40:24;11.20;99.90
13960;DHT22;7052;51.050;3.716;2023-12-29T14:42:51;11.30;99.90
13960;DHT22;7052;51.050;3.716;2023-12-29T14:45:18;11.20;99.90
13960;DHT22;7052;51.050;3.716;2023-12-29T14:47:49;11.20;99.90
13960;DHT22;7052;51.050;3.716;2023-12-29T14:50:21;11.20;99.90
13960;DHT22;7052;51.050;3.716;2023-12-29T14:52:48;11.20;99.90
13960;DHT22;7052;51.050;3.716;2023-12-29T14:55:15;11.10;99.90
13960;DHT22;7052;51.050;3.716;2023-12-29T14:57:42;11.10;99.90
13960;DHT22;7052;51.050;3.716;2023-12-29T15:00:11;11.00;99.90
13960;DHT22;7052;51.050;3.716;2023-12-29T15:02:40;11.00;99.90
13960;DHT22;7052;51.050;3.716;2023-12-29T15:05:12;11.00;99.90
13960;DHT22;7052;51.050;3.716;2023-12-29T15:07:40;11.10;99.90
13960;DHT22;7052;51.050;3.716;2023-12-29T15:10:08;11.20;99.90
13960;DHT22;7052;51.050;3.716;2023-12-29T15:12:35;11.10;99.90
13960;DHT22;7052;51.050;3.716;2023-12-29T15:15:02;11.10;99.90
13960;DHT22;7052;51.050;3.716;2023-12-29T15:17:31;11.10;99.90
13960;DHT22;7052;51.050;3.716;2023-12-29T15:20:02;11.10;99.90
13960;DHT22;7052;51.050;3.716;2023-12-29T15:22:32;11.10;99.90
13960;DHT22;7052;51.050;3.716;2023-12-29T15:25:00;11.20;99.90
13960;DHT22;7052;51.050;3.716;2023-12-29T15:27:27;11.20;99.90
13960;DHT22;7052;51.050;3.716;2023-12-29T15:29:57;11.10;99.90
13960;DHT22;7052;51.050;3.716;2023-12-29T15:32:25;11.10;99.90
13960;DHT22;7052;51.050;3.716;2023-12-29T15:34:53;11.10;99.90
13960;DHT22;7052;51.050;3.716;2023-12-29T15:37:20;11.10;99.90
13960;DHT22;7052;51.050;3.716;2023-12-29T15:39:50;11.10;99.90
13960;DHT22;7052;51.050;3.716;2023-12-29T15:42:17;11.10;99.90
13960;DHT22;7052;51.050;3.716;2023-12-29T15:44:46;11.20;99.90
13960;DHT22;7052;51.050;3.716;2023-12-29T15:47:13;11.20;99.90
13960;DHT22;7052;51.050;3.716;2023-12-29T15:49:41;11.10;99.90
13960;DHT22;7052;51.050;3.716;2023-12-29T15:52:09;11.20;99.90
13960;DHT22;7052;51.050;3.716;2023-12-29T15:54:39;11.20;99.90
13960;DHT22;7052;51.050;3.716;2023-12-29T15:57:07;11.00;99.90
13960;DHT22;7052;51.050;3.716;2023-12-29T15:59:41;11.00;99.90
13960;DHT22;7052;51.050;3.716;2023-12-29T16:02:10;10.80;99.90